Time;durP1;ratioP1;P1;durP2;ratioP2;P2;SDS_P1;SDS_P2;PMS_P1;PMS_P2;Temp;Humidity;BMP_temperature;BMP_pressure;BME280_temperature;BME280_humidity;BME280_pressure;Samples;Min_cycle;Max_cycle;Signal;HPM_P1;HPM_P2
2021/10/07 00:00:42;;;;;;;3.28;1.60;;;;;;;;;;6197021;28;20048;-82
2021/10/07 00:03:48;;;;;;;3.55;1.70;;;;;;;;;;6209462;28;20042;-82
2021/10/07 00:06:50;;;;;;;2.58;1.90;;;;;;;;;;6195919;28;20054;-82
2021/10/07 00:09:52;;;;;;;2.90;2.17;;;;;;;;;;6195881;28;20402;-82
2021/10/07 00:12:53;;;;;;;2.70;2.00;;;;;;;;;;6193511;28;20058;-82
2021/10/07 00:15:55;;;;;;;3.33;2.20;;;;;;;;;;6196903;28;20054;-83
2021/10/07 00:18:57;;;;;;;3.78;2.42;;;;;;;;;;6192237;28;20039;-83
2021/10/07 00:21:58;;;;;;;3.47;2.22;;;;;;;;;;6195970;28;20052;-84
2021/10/07 00:25:00;;;;;;;3.40;1.90;;;;;;;;;;6192882;28;20042;-83
2021/10/07 00:28:08;;;;;;;6.22;2.63;;;;;;;;;;6196820;28;20046;-83
2021/10/07 00:31:17;;;;;;;6.55;3.75;;;;;;;;;;6198880;28;20105;-82
2021/10/07 00:40:22;;;;;;;6.13;3.80;;;;;;;;;;6196534;28;20038;-82
2021/10/07 00:43:24;;;;;;;8.02;4.35;;;;;;;;;;6194228;28;20046;-83
2021/10/07 00:46:25;;;;;;;7.18;4.00;;;;;;;;;;6196027;28;20700;-83
2021/10/07 00:49:29;;;;;;;7.22;3.88;;;;;;;;;;6194788;28;20049;-83
2021/10/07 00:52:31;;;;;;;10.27;4.30;;;;;;;;;;6193165;28;20397;-81
2021/10/07 00:55:33;;;;;;;5.18;3.33;;;;;;;;;;6193744;28;20615;-83
2021/10/07 00:58:34;;;;;;;6.53;3.63;;;;;;;;;;6195240;28;20146;-83
2021/10/07 01:01:36;;;;;;;5.68;3.38;;;;;;;;;;6194017;28;20042;-83
2021/10/07 01:04:38;;;;;;;7.20;3.30;;;;;;;;;;6194924;28;20050;-83
2021/10/07 01:07:39;;;;;;;7.13;4.13;;;;;;;;;;6209448;28;20031;-82
2021/10/07 01:10:41;;;;;;;9.77;3.85;;;;;;;;;;6193746;28;20039;-83
2021/10/07 01:13:43;;;;;;;9.32;3.50;;;;;;;;;;6194374;28;20054;-83
2021/10/07 01:16:44;;;;;;;7.57;3.60;;;;;;;;;;6193750;28;20554;-84
2021/10/07 01:19:48;;;;;;;6.35;3.53;;;;;;;;;;6194914;28;20038;-82
2021/10/07 01:22:49;;;;;;;7.57;3.90;;;;;;;;;;6196016;28;20224;-82
2021/10/07 01:25:51;;;;;;;6.93;3.42;;;;;;;;;;6195552;28;20041;-83
2021/10/07 01:28:52;;;;;;;5.18;3.25;;;;;;;;;;6191493;28;20068;-84
2021/10/07 01:31:54;;;;;;;5.00;3.28;;;;;;;;;;6191823;28;20054;-82
2021/10/07 01:34:56;;;;;;;5.97;3.50;;;;;;;;;;6194783;28;20054;-84
2021/10/07 01:37:57;;;;;;;8.27;3.30;;;;;;;;;;6192129;28;20070;-83
2021/10/07 01:41:00;;;;;;;7.22;3.22;;;;;;;;;;6191590;28;20042;-82
2021/10/07 01:44:02;;;;;;;6.13;3.10;;;;;;;;;;6192825;28;20503;-82
2021/10/07 01:47:03;;;;;;;7.00;3.60;;;;;;;;;;6192678;28;20048;-84
2021/10/07 01:50:08;;;;;;;4.50;3.00;;;;;;;;;;6193975;28;20143;-82
2021/10/07 01:53:10;;;;;;;8.75;3.10;;;;;;;;;;6194963;28;20054;-82
2021/10/07 01:56:12;;;;;;;6.75;3.72;;;;;;;;;;6193794;28;20041;-83
2021/10/07 01:59:13;;;;;;;5.63;3.33;;;;;;;;;;6194791;28;20404;-84
2021/10/07 02:02:15;;;;;;;7.03;3.60;;;;;;;;;;6193806;28;20046;-82
2021/10/07 02:05:17;;;;;;;8.05;4.10;;;;;;;;;;6230907;28;20120;-82
2021/10/07 02:08:18;;;;;;;11.90;4.95;;;;;;;;;;6201538;28;20043;-83
2021/10/07 02:11:20;;;;;;;10.52;5.07;;;;;;;;;;6228794;28;20044;-82
2021/10/07 02:14:23;;;;;;;13.43;5.60;;;;;;;;;;6230329;28;20042;-84
2021/10/07 02:17:25;;;;;;;;;;;;;;;;;;6193813;28;20039;-82
2021/10/07 02:20:26;;;;;;;9.73;4.57;;;;;;;;;;6207796;28;19932;-83
2021/10/07 02:23:28;;;;;;;8.93;4.80;;;;;;;;;;6173983;28;20046;-82
2021/10/07 02:26:30;;;;;;;10.63;4.38;;;;;;;;;;6189919;28;20049;-84
2021/10/07 02:29:31;;;;;;;9.18;4.20;;;;;;;;;;6229806;28;20064;-80
2021/10/07 02:32:33;;;;;;;11.93;5.40;;;;;;;;;;6198446;28;20046;-81
2021/10/07 02:35:35;;;;;;;12.18;5.30;;;;;;;;;;6199288;28;20081;-84
2021/10/07 02:38:37;;;;;;;10.85;5.68;;;;;;;;;;6197154;28;20057;-83
2021/10/07 02:41:38;;;;;;;9.20;5.30;;;;;;;;;;6197831;28;20047;-82
2021/10/07 02:44:40;;;;;;;11.73;5.30;;;;;;;;;;6196967;28;20057;-83
2021/10/07 02:47:46;;;;;;;11.40;5.50;;;;;;;;;;6196672;28;20054;-81
2021/10/07 02:50:48;;;;;;;;;;;;;;;;;;6198948;28;20159;-82
2021/10/07 02:53:49;;;;;;;12.07;4.90;;;;;;;;;;6196957;28;19949;-83
2021/10/07 02:56:51;;;;;;;9.70;5.10;;;;;;;;;;6185821;28;20054;-81
2021/10/07 02:59:53;;;;;;;10.02;4.65;;;;;;;;;;6197403;28;20512;-83
2021/10/07 03:02:54;;;;;;;8.18;4.43;;;;;;;;;;6192107;28;20051;-83
2021/10/07 03:05:56;;;;;;;9.18;4.13;;;;;;;;;;6195421;28;20053;-82
2021/10/07 03:08:58;;;;;;;8.02;4.07;;;;;;;;;;6197569;28;20213;-80
2021/10/07 03:12:00;;;;;;;8.25;4.28;;;;;;;;;;6190420;28;20050;-83
2021/10/07 03:15:02;;;;;;;7.90;4.40;;;;;;;;;;6192075;28;20046;-81
2021/10/07 03:18:04;;;;;;;10.10;4.95;;;;;;;;;;6192200;28;20661;-82
2021/10/07 03:21:05;;;;;;;11.32;5.43;;;;;;;;;;6194494;28;20411;-83
2021/10/07 03:24:07;;;;;;;11.95;5.63;;;;;;;;;;6193130;28;20046;-82
2021/10/07 03:27:09;;;;;;;11.73;6.15;;;;;;;;;;6195488;28;20094;-83
2021/10/07 03:30:11;;;;;;;12.88;5.53;;;;;;;;;;6197221;28;20053;-83
2021/10/07 03:33:13;;;;;;;12.18;6.30;;;;;;;;;;6190194;28;20504;-82
2021/10/07 03:36:15;;;;;;;11.52;5.15;;;;;;;;;;6197590;28;20038;-82
2021/10/07 03:39:17;;;;;;;8.27;4.45;;;;;;;;;;6197908;28;20132;-83
2021/10/07 03:42:19;;;;;;;9.85;4.80;;;;;;;;;;6178169;28;20078;-81
2021/10/07 03:45:21;;;;;;;7.72;4.18;;;;;;;;;;6180407;28;20129;-83
2021/10/07 03:48:23;;;;;;;8.57;4.85;;;;;;;;;;6193298;28;20181;-85
2021/10/07 03:51:24;;;;;;;7.50;4.32;;;;;;;;;;6197306;28;20053;-82
2021/10/07 03:54:26;;;;;;;10.60;4.95;;;;;;;;;;6186102;28;20046;-83
2021/10/07 03:57:29;;;;;;;9.48;4.82;;;;;;;;;;6219627;28;20338;-83
2021/10/07 04:00:30;;;;;;;9.82;4.65;;;;;;;;;;6197406;28;20106;-82
2021/10/07 04:03:33;;;;;;;11.00;4.90;;;;;;;;;;6194881;28;20042;-82
2021/10/07 04:06:35;;;;;;;12.05;5.60;;;;;;;;;;6192817;28;20518;-82
2021/10/07 04:09:36;;;;;;;13.10;5.95;;;;;;;;;;6194920;28;20524;-84
2021/10/07 04:12:38;;;;;;;13.45;6.07;;;;;;;;;;6191048;28;20605;-84
2021/10/07 04:15:40;;;;;;;11.75;5.68;;;;;;;;;;6196853;28;20090;-82
2021/10/07 04:18:43;;;;;;;9.80;5.65;;;;;;;;;;6193846;28;20094;-82
2021/10/07 04:21:45;;;;;;;;;;;;;;;;;;6171568;28;20189;-83
2021/10/07 04:24:47;;;;;;;10.20;4.95;;;;;;;;;;6168734;28;19944;-85
2021/10/07 04:27:56;;;;;;;11.48;5.20;;;;;;;;;;6169501;28;20043;-82
2021/10/07 04:30:58;;;;;;;13.38;5.55;;;;;;;;;;6194568;28;20097;-82
2021/10/07 04:33:59;;;;;;;10.77;5.40;;;;;;;;;;6213110;28;20141;-82
2021/10/07 04:37:01;;;;;;;10.48;4.95;;;;;;;;;;6195075;28;20056;-81
2021/10/07 04:40:04;;;;;;;8.80;4.65;;;;;;;;;;6186462;28;20038;-82
2021/10/07 04:43:05;;;;;;;10.13;5.20;;;;;;;;;;6193022;28;20128;-83
2021/10/07 04:46:07;;;;;;;13.13;5.63;;;;;;;;;;6192085;28;20647;-82
2021/10/07 04:49:09;;;;;;;11.38;5.57;;;;;;;;;;6193617;28;20046;-83
2021/10/07 04:52:11;;;;;;;9.15;5.22;;;;;;;;;;6194804;28;20768;-85
2021/10/07 04:55:13;;;;;;;13.68;5.82;;;;;;;;;;6229201;28;20571;-81
2021/10/07 04:58:14;;;;;;;10.38;5.40;;;;;;;;;;6195247;28;20041;-82
2021/10/07 05:01:19;;;;;;;12.93;5.28;;;;;;;;;;6196014;28;20528;-82
2021/10/07 05:04:21;;;;;;;10.40;5.45;;;;;;;;;;6192891;28;20061;-85
2021/10/07 05:07:23;;;;;;;11.82;6.38;;;;;;;;;;6197638;28;20734;-83
2021/10/07 05:10:24;;;;;;;15.68;8.00;;;;;;;;;;6198107;28;20046;-84
2021/10/07 05:13:26;;;;;;;17.23;8.60;;;;;;;;;;6195662;28;20053;-84
2021/10/07 05:16:28;;;;;;;17.55;8.75;;;;;;;;;;6171571;28;20042;-84
2021/10/07 05:19:29;;;;;;;15.07;7.88;;;;;;;;;;6193936;28;20504;-84
2021/10/07 05:22:31;;;;;;;15.95;8.30;;;;;;;;;;6197763;28;20038;-82
2021/10/07 05:25:32;;;;;;;17.45;8.25;;;;;;;;;;6197374;28;20048;-84
2021/10/07 05:28:34;;;;;;;18.27;8.30;;;;;;;;;;6228233;28;20050;-83
2021/10/07 05:31:35;;;;;;;18.40;8.50;;;;;;;;;;6196211;28;20514;-83
2021/10/07 05:34:37;;;;;;;18.80;8.90;;;;;;;;;;6195608;28;20053;-85
2021/10/07 05:37:39;;;;;;;19.60;8.85;;;;;;;;;;6194765;28;20038;-83
2021/10/07 05:40:40;;;;;;;17.77;8.40;;;;;;;;;;6204780;28;20047;-82
2021/10/07 05:43:42;;;;;;;17.65;9.05;;;;;;;;;;6173073;28;20133;-84
2021/10/07 05:46:43;;;;;;;16.67;8.18;;;;;;;;;;6182745;28;20133;-84
2021/10/07 05:49:45;;;;;;;17.98;8.55;;;;;;;;;;6226450;28;20053;-85
2021/10/07 05:52:47;;;;;;;20.83;9.43;;;;;;;;;;6196648;28;20092;-83
2021/10/07 05:55:52;;;;;;;19.05;9.40;;;;;;;;;;6194973;28;20109;-85
2021/10/07 05:58:54;;;;;;;19.65;9.15;;;;;;;;;;6197521;28;20149;-81
2021/10/07 06:01:56;;;;;;;21.83;8.95;;;;;;;;;;6179065;28;20046;-83
2021/10/07 06:04:57;;;;;;;23.02;9.70;;;;;;;;;;6197549;28;20061;-85
2021/10/07 06:07:59;;;;;;;20.52;9.00;;;;;;;;;;6196220;28;20133;-85
2021/10/07 06:11:02;;;;;;;19.37;9.00;;;;;;;;;;6230189;28;20050;-82
2021/10/07 06:14:05;;;;;;;24.15;9.20;;;;;;;;;;6192611;28;20047;-82
2021/10/07 06:17:09;;;;;;;21.60;9.38;;;;;;;;;;6194230;28;20035;-84
2021/10/07 06:23:22;;;;;;;19.90;8.90;;;;;;;;;;6199204;28;20044;-81
2021/10/07 06:26:24;;;;;;;19.75;8.18;;;;;;;;;;6199321;28;20060;-83
2021/10/07 06:29:27;;;;;;;18.30;7.30;;;;;;;;;;6200106;28;20042;-83
2021/10/07 06:32:28;;;;;;;14.20;7.00;;;;;;;;;;6226625;28;20127;-83
2021/10/07 06:35:30;;;;;;;15.15;7.70;;;;;;;;;;6196251;28;20042;-84
2021/10/07 06:38:31;;;;;;;15.75;7.50;;;;;;;;;;6196522;28;20211;-84
2021/10/07 06:41:34;;;;;;;17.17;7.80;;;;;;;;;;6195181;28;20053;-82
2021/10/07 06:44:36;;;;;;;17.33;8.00;;;;;;;;;;6194092;28;20056;-85
2021/10/07 06:47:39;;;;;;;20.00;8.00;;;;;;;;;;6192115;28;20047;-84
2021/10/07 06:50:42;;;;;;;15.95;7.72;;;;;;;;;;6197700;28;20054;-84
2021/10/07 06:53:44;;;;;;;16.50;7.28;;;;;;;;;;6199300;28;20050;-83
2021/10/07 06:56:45;;;;;;;15.82;7.65;;;;;;;;;;6198413;28;20056;-84
2021/10/07 06:59:47;;;;;;;14.13;7.15;;;;;;;;;;6191074;28;20150;-81
2021/10/07 07:02:48;;;;;;;50.25;23.95;;;;;;;;;;6185034;28;20538;-82
2021/10/07 07:05:50;;;;;;;97.30;48.92;;;;;;;;;;6230282;28;20120;-82
2021/10/07 07:08:52;;;;;;;88.40;71.35;;;;;;;;;;6198325;28;20046;-80
2021/10/07 07:11:54;;;;;;;26.30;16.00;;;;;;;;;;6198365;28;20058;-81
2021/10/07 07:14:55;;;;;;;15.90;8.80;;;;;;;;;;6194136;28;20046;-81
2021/10/07 07:17:57;;;;;;;15.65;7.70;;;;;;;;;;6194418;28;20042;-81
2021/10/07 07:20:59;;;;;;;16.77;8.10;;;;;;;;;;6196425;28;20038;-82
2021/10/07 07:24:02;;;;;;;11.65;6.25;;;;;;;;;;6198783;28;20110;-81
2021/10/07 07:27:04;;;;;;;8.85;4.93;;;;;;;;;;6197411;28;20130;-79
2021/10/07 07:30:06;;;;;;;13.18;8.38;;;;;;;;;;6200348;28;20137;-82
2021/10/07 07:33:08;;;;;;;11.40;7.13;;;;;;;;;;6200641;28;20042;-82
2021/10/07 07:36:09;;;;;;;11.60;6.43;;;;;;;;;;6204241;28;20114;-82
2021/10/07 07:39:11;;;;;;;11.23;6.38;;;;;;;;;;6204258;28;20043;-81
2021/10/07 07:42:12;;;;;;;9.20;5.93;;;;;;;;;;6217367;28;20050;-82
2021/10/07 07:45:14;;;;;;;9.10;5.35;;;;;;;;;;6204957;28;20046;-83
2021/10/07 07:48:29;;;;;;;9.85;5.50;;;;;;;;;;6201769;28;20057;-83
2021/10/07 07:51:33;;;;;;;8.23;5.10;;;;;;;;;;6204887;28;20360;-83
2021/10/07 07:54:35;;;;;;;9.70;5.38;;;;;;;;;;6203826;28;20050;-83
2021/10/07 07:57:36;;;;;;;10.50;5.50;;;;;;;;;;6234800;28;20431;-81
2021/10/07 08:00:39;;;;;;;8.82;4.88;;;;;;;;;;6202302;28;20042;-80
2021/10/07 08:03:40;;;;;;;10.53;5.33;;;;;;;;;;6201328;28;20174;-83
2021/10/07 08:06:42;;;;;;;7.65;4.75;;;;;;;;;;6206020;28;20437;-83
2021/10/07 08:09:44;;;;;;;19.02;16.33;;;;;;;;;;6197236;28;20512;-82
2021/10/07 08:12:46;;;;;;;8.27;5.85;;;;;;;;;;6177971;28;20050;-82
2021/10/07 08:15:50;;;;;;;8.98;5.07;;;;;;;;;;6177015;28;20461;-83
2021/10/07 08:18:52;;;;;;;9.65;5.75;;;;;;;;;;6191449;28;20047;-81
2021/10/07 08:21:54;;;;;;;11.40;6.60;;;;;;;;;;6199866;28;20043;-84
2021/10/07 08:24:55;;;;;;;11.77;7.53;;;;;;;;;;6202014;28;20050;-85
2021/10/07 08:27:57;;;;;;;13.10;7.88;;;;;;;;;;6199506;28;20066;-84
2021/10/07 08:30:59;;;;;;;12.90;8.32;;;;;;;;;;6202618;28;20050;-84
2021/10/07 08:34:01;;;;;;;22.65;14.57;;;;;;;;;;6178552;28;20070;-85
2021/10/07 08:37:04;;;;;;;11.73;6.82;;;;;;;;;;6201049;28;20483;-83
2021/10/07 08:40:09;;;;;;;19.98;11.40;;;;;;;;;;6200731;28;20046;-81
2021/10/07 08:43:11;;;;;;;18.73;12.05;;;;;;;;;;6197498;28;20049;-83
2021/10/07 08:46:13;;;;;;;17.42;11.05;;;;;;;;;;6200913;28;20046;-82
2021/10/07 08:49:17;;;;;;;14.48;8.93;;;;;;;;;;6178810;28;20047;-83
2021/10/07 08:52:20;;;;;;;9.20;5.65;;;;;;;;;;6177410;28;20475;-83
2021/10/07 08:55:22;;;;;;;8.07;5.32;;;;;;;;;;6175907;28;20042;-82
2021/10/07 08:58:23;;;;;;;14.65;8.85;;;;;;;;;;6229901;28;20120;-83
2021/10/07 09:01:40;;;;;;;15.25;9.38;;;;;;;;;;6201070;28;20122;-83
2021/10/07 09:04:42;;;;;;;12.50;7.32;;;;;;;;;;6193581;28;20046;-82
2021/10/07 09:07:54;;;;;;;17.70;9.77;;;;;;;;;;6202410;28;20046;-83
2021/10/07 09:10:56;;;;;;;51.97;24.30;;;;;;;;;;6197200;28;20050;-83
2021/10/07 09:14:04;;;;;;;32.40;16.60;;;;;;;;;;6199139;28;20079;-82
2021/10/07 09:17:08;;;;;;;13.32;7.60;;;;;;;;;;6199047;28;20042;-82
2021/10/07 09:20:09;;;;;;;10.25;6.28;;;;;;;;;;6200330;28;20046;-82
2021/10/07 09:23:17;;;;;;;35.55;15.10;;;;;;;;;;6199724;28;20042;-83
2021/10/07 09:26:19;;;;;;;15.00;7.63;;;;;;;;;;6197409;28;20173;-82
2021/10/07 09:29:42;;;;;;;14.20;7.75;;;;;;;;;;6200232;28;20475;-83
2021/10/07 09:32:51;;;;;;;8.93;5.80;;;;;;;;;;6189497;28;20047;-81
2021/10/07 09:36:27;;;;;;;30.42;10.35;;;;;;;;;;6228026;28;20129;-80
2021/10/07 09:39:32;;;;;;;20.23;8.02;;;;;;;;;;6199424;28;20085;-83
2021/10/07 09:42:37;;;;;;;22.00;8.43;;;;;;;;;;6171166;28;20049;-85
2021/10/07 09:45:39;;;;;;;16.30;7.80;;;;;;;;;;6190260;28;20066;-83
2021/10/07 09:48:41;;;;;;;10.38;6.10;;;;;;;;;;6197444;28;20423;-84
2021/10/07 09:51:47;;;;;;;10.18;6.43;;;;;;;;;;6199304;28;20046;-83
2021/10/07 09:54:51;;;;;;;9.27;5.35;;;;;;;;;;6231514;28;20500;-83
2021/10/07 09:57:53;;;;;;;6.78;4.80;;;;;;;;;;6201370;28;20105;-83
2021/10/07 10:00:57;;;;;;;6.03;4.82;;;;;;;;;;6232232;28;20049;-82
2021/10/07 10:03:59;;;;;;;7.63;5.13;;;;;;;;;;6201309;28;20057;-83
2021/10/07 10:07:01;;;;;;;5.60;4.43;;;;;;;;;;6234711;28;20141;-83
2021/10/07 10:10:03;;;;;;;7.90;4.80;;;;;;;;;;6232905;28;20107;-83
2021/10/07 10:13:07;;;;;;;7.05;4.65;;;;;;;;;;6198573;28;20130;-85
2021/10/07 10:16:09;;;;;;;;;;;;;;;;;;6184168;28;20038;-84
2021/10/07 10:19:13;;;;;;;7.80;4.60;;;;;;;;;;6212869;28;19922;-84
2021/10/07 10:22:15;;;;;;;6.10;4.55;;;;;;;;;;6200263;28;20053;-85
2021/10/07 10:25:16;;;;;;;7.65;4.82;;;;;;;;;;6203619;28;20048;-83
2021/10/07 10:28:28;;;;;;;8.25;5.10;;;;;;;;;;6206538;28;20138;-83
2021/10/07 10:31:34;;;;;;;6.88;4.75;;;;;;;;;;6204577;28;20054;-83
2021/10/07 10:34:42;;;;;;;6.82;4.88;;;;;;;;;;6205147;28;20052;-83
2021/10/07 10:37:55;;;;;;;7.05;4.53;;;;;;;;;;6208419;28;20126;-83
2021/10/07 10:41:10;;;;;;;;;;;;;;;;;;6185411;28;22897;-83
2021/10/07 10:44:27;;;;;;;7.03;5.05;;;;;;;;;;6202383;28;19929;-82
2021/10/07 10:47:39;;;;;;;7.18;4.72;;;;;;;;;;6179194;28;20049;-84
2021/10/07 10:50:41;;;;;;;7.13;5.03;;;;;;;;;;6200002;28;20125;-86
2021/10/07 10:53:50;;;;;;;6.53;4.93;;;;;;;;;;6196890;28;20097;-84
2021/10/07 10:56:59;;;;;;;7.55;4.60;;;;;;;;;;6228038;28;20464;-85
2021/10/07 11:00:16;;;;;;;7.43;4.50;;;;;;;;;;6228070;28;20062;-86
2021/10/07 11:03:22;;;;;;;8.18;4.35;;;;;;;;;;6196609;28;20106;-83
2021/10/07 11:06:23;;;;;;;7.35;4.85;;;;;;;;;;6176172;28;20046;-84
2021/10/07 11:10:04;;;;;;;6.05;4.80;;;;;;;;;;6201814;28;20056;-84
2021/10/07 11:13:16;;;;;;;6.72;4.78;;;;;;;;;;6173232;28;20051;-83
2021/10/07 11:16:19;;;;;;;5.68;4.55;;;;;;;;;;6199619;28;20099;-84
2021/10/07 11:19:20;;;;;;;7.35;5.18;;;;;;;;;;6198317;28;20371;-84
2021/10/07 11:22:23;;;;;;;8.18;5.18;;;;;;;;;;6215815;28;20084;-83
2021/10/07 11:25:25;;;;;;;8.37;5.30;;;;;;;;;;6202517;28;20062;-85
2021/10/07 11:28:38;;;;;;;8.18;5.15;;;;;;;;;;6179724;28;20523;-84
2021/10/07 11:31:44;;;;;;;7.25;4.82;;;;;;;;;;6174830;28;20488;-85
2021/10/07 11:34:57;;;;;;;7.03;4.57;;;;;;;;;;6199032;28;20061;-84
2021/10/07 11:38:03;;;;;;;7.35;5.00;;;;;;;;;;6198998;28;20047;-83
2021/10/07 11:41:05;;;;;;;9.00;5.00;;;;;;;;;;6196844;28;20049;-85
2021/10/07 11:44:06;;;;;;;7.55;4.93;;;;;;;;;;6198863;28;20042;-84
2021/10/07 11:47:14;;;;;;;6.28;4.47;;;;;;;;;;6230827;28;20038;-84
2021/10/07 11:50:18;;;;;;;7.85;4.80;;;;;;;;;;6232324;28;20049;-83
2021/10/07 11:53:39;;;;;;;7.10;4.78;;;;;;;;;;6214571;28;20039;-85
2021/10/07 11:56:41;;;;;;;5.80;4.82;;;;;;;;;;6202825;28;20056;-83
2021/10/07 11:59:42;;;;;;;6.75;4.93;;;;;;;;;;6186749;28;20115;-84
2021/10/07 12:03:05;;;;;;;6.93;4.63;;;;;;;;;;6217172;28;20050;-85
2021/10/07 12:06:12;;;;;;;7.13;5.10;;;;;;;;;;6236424;28;20078;-84
2021/10/07 12:09:14;;;;;;;8.48;4.88;;;;;;;;;;6204350;28;20484;-84
2021/10/07 12:12:16;;;;;;;8.30;5.05;;;;;;;;;;6219185;28;20093;-83
2021/10/07 12:15:17;;;;;;;5.50;4.70;;;;;;;;;;6187363;28;20081;-83
2021/10/07 12:18:20;;;;;;;6.70;4.22;;;;;;;;;;6203596;28;20053;-83
2021/10/07 12:21:29;;;;;;;7.07;4.25;;;;;;;;;;6235931;28;20143;-84
2021/10/07 12:24:31;;;;;;;7.40;4.50;;;;;;;;;;6232878;28;20177;-84
2021/10/07 12:27:33;;;;;;;5.82;4.43;;;;;;;;;;6202373;28;20582;-83
2021/10/07 12:30:34;;;;;;;10.45;6.50;;;;;;;;;;6202689;28;20061;-84
2021/10/07 12:33:36;;;;;;;6.13;4.43;;;;;;;;;;6198633;28;20049;-81
2021/10/07 12:36:44;;;;;;;5.30;3.85;;;;;;;;;;6203409;28;20074;-83
2021/10/07 12:39:48;;;;;;;15.63;4.90;;;;;;;;;;6203989;28;20054;-84
2021/10/07 12:42:49;;;;;;;4.75;3.92;;;;;;;;;;6216928;28;20046;-84
2021/10/07 12:46:20;;;;;;;4.70;3.63;;;;;;;;;;6203480;28;20042;-84
2021/10/07 12:49:34;;;;;;;6.45;3.85;;;;;;;;;;6199960;28;20043;-84
2021/10/07 12:52:41;;;;;;;6.05;4.43;;;;;;;;;;6197684;28;20054;-82
2021/10/07 12:55:42;;;;;;;7.55;4.25;;;;;;;;;;6198420;28;20047;-82
2021/10/07 12:59:01;;;;;;;4.55;4.00;;;;;;;;;;6201142;28;20504;-81
2021/10/07 13:02:03;;;;;;;5.18;4.03;;;;;;;;;;6187126;28;20404;-82
2021/10/07 13:05:18;;;;;;;5.90;4.13;;;;;;;;;;6188692;28;20054;-81
2021/10/07 13:08:20;;;;;;;6.93;3.85;;;;;;;;;;6185779;28;20046;-81
2021/10/07 13:11:21;;;;;;;6.53;4.00;;;;;;;;;;6203125;28;20106;-81
2021/10/07 13:14:23;;;;;;;5.78;4.00;;;;;;;;;;6190267;28;20042;-81
2021/10/07 13:17:26;;;;;;;4.90;3.65;;;;;;;;;;6189624;28;20117;-81
2021/10/07 13:20:27;;;;;;;9.68;6.60;;;;;;;;;;6192556;28;20053;-81
2021/10/07 13:23:29;;;;;;;4.85;3.50;;;;;;;;;;6207104;28;20050;-81
2021/10/07 13:26:45;;;;;;;6.55;3.88;;;;;;;;;;6186926;28;20079;-82
2021/10/07 13:29:46;;;;;;;3.75;2.92;;;;;;;;;;6186781;28;20111;-80
2021/10/07 13:32:53;;;;;;;3.30;2.45;;;;;;;;;;6187914;28;20120;-82
2021/10/07 13:35:57;;;;;;;3.83;2.85;;;;;;;;;;6213313;28;20757;-82
2021/10/07 13:39:01;;;;;;;5.13;3.40;;;;;;;;;;6201198;28;20046;-82
2021/10/07 13:42:03;;;;;;;6.78;5.43;;;;;;;;;;6191147;28;20090;-81
2021/10/07 13:45:05;;;;;;;7.60;6.18;;;;;;;;;;6188245;28;20066;-82
2021/10/07 13:48:07;;;;;;;6.88;5.85;;;;;;;;;;6195972;28;20054;-82
2021/10/07 13:51:09;;;;;;;3.10;2.45;;;;;;;;;;6193550;28;20050;-82
2021/10/07 13:54:11;;;;;;;3.80;2.78;;;;;;;;;;6209868;28;20074;-82
2021/10/07 13:57:15;;;;;;;2.55;2.22;;;;;;;;;;6183869;28;20046;-82
2021/10/07 14:00:18;;;;;;;3.42;2.08;;;;;;;;;;6197838;28;20061;-82
2021/10/07 14:03:20;;;;;;;;;;;;;;;;;;6204833;28;20044;-82
2021/10/07 14:06:21;;;;;;;3.88;2.38;;;;;;;;;;6204153;28;19993;-82
2021/10/07 14:09:25;;;;;;;5.38;2.58;;;;;;;;;;6206468;28;20050;-82
2021/10/07 14:12:27;;;;;;;6.20;4.10;;;;;;;;;;6203819;28;20061;-82
2021/10/07 14:15:30;;;;;;;;;;;;;;;;;;6204199;28;20046;-83
2021/10/07 14:18:32;;;;;;;3.85;3.08;;;;;;;;;;6201199;28;19945;-81
2021/10/07 14:21:35;;;;;;;3.65;2.47;;;;;;;;;;6198716;28;20047;-82
2021/10/07 14:24:37;;;;;;;2.95;2.38;;;;;;;;;;6187304;28;20047;-83
2021/10/07 14:27:39;;;;;;;5.57;3.13;;;;;;;;;;6173527;28;20127;-81
2021/10/07 14:30:40;;;;;;;3.13;2.40;;;;;;;;;;6189918;28;20047;-80
2021/10/07 14:33:42;;;;;;;3.60;2.85;;;;;;;;;;6183446;28;20039;-82
2021/10/07 14:36:43;;;;;;;4.30;2.75;;;;;;;;;;6188499;28;20060;-81
2021/10/07 14:39:45;;;;;;;5.25;2.90;;;;;;;;;;6208773;28;20138;-81
2021/10/07 14:42:51;;;;;;;4.82;3.10;;;;;;;;;;6178137;28;20055;-79
2021/10/07 14:45:52;;;;;;;4.10;2.92;;;;;;;;;;6184909;28;20041;-81
2021/10/07 14:48:54;;;;;;;3.63;3.10;;;;;;;;;;6186404;28;20137;-81
2021/10/07 14:51:55;;;;;;;4.85;2.97;;;;;;;;;;6188112;28;20111;-82
2021/10/07 14:54:57;;;;;;;4.35;3.35;;;;;;;;;;6185365;28;20058;-83
2021/10/07 14:57:59;;;;;;;5.30;3.70;;;;;;;;;;6190190;28;20053;-83
2021/10/07 15:01:01;;;;;;;3.95;3.33;;;;;;;;;;6190561;28;20194;-82
2021/10/07 15:04:03;;;;;;;3.80;3.13;;;;;;;;;;6187139;28;20046;-81
2021/10/07 15:07:05;;;;;;;4.55;3.10;;;;;;;;;;6184374;28;20045;-81
2021/10/07 15:10:09;;;;;;;5.35;3.30;;;;;;;;;;6190888;28;20054;-81
2021/10/07 15:13:11;;;;;;;3.70;2.90;;;;;;;;;;6193773;28;20070;-80
2021/10/07 15:16:13;;;;;;;3.58;3.28;;;;;;;;;;6197296;28;20061;-82
2021/10/07 15:19:15;;;;;;;5.32;3.45;;;;;;;;;;6191598;28;20042;-82
2021/10/07 15:22:19;;;;;;;4.47;3.10;;;;;;;;;;6195239;28;20046;-81
2021/10/07 15:25:22;;;;;;;4.78;3.50;;;;;;;;;;6195664;28;20452;-81
2021/10/07 15:28:23;;;;;;;5.07;3.17;;;;;;;;;;6193375;28;20416;-82
2021/10/07 15:31:25;;;;;;;4.20;3.28;;;;;;;;;;6195405;28;20056;-82
2021/10/07 15:34:27;;;;;;;3.85;2.78;;;;;;;;;;6225285;28;20133;-81
2021/10/07 15:37:29;;;;;;;4.35;3.38;;;;;;;;;;6197166;28;20541;-80
2021/10/07 15:40:31;;;;;;;3.67;3.10;;;;;;;;;;6193289;28;20062;-80
2021/10/07 15:43:35;;;;;;;5.75;3.38;;;;;;;;;;6178146;28;20046;-82
2021/10/07 15:46:36;;;;;;;6.50;5.43;;;;;;;;;;6193289;28;20050;-82
2021/10/07 15:49:38;;;;;;;6.63;3.47;;;;;;;;;;6210197;28;20042;-83
2021/10/07 15:52:40;;;;;;;6.00;3.30;;;;;;;;;;6194438;28;20038;-81
2021/10/07 15:55:41;;;;;;;5.70;3.50;;;;;;;;;;6190537;28;20517;-82
2021/10/07 15:58:46;;;;;;;3.75;3.08;;;;;;;;;;6179293;28;20042;-81
2021/10/07 16:01:49;;;;;;;4.65;3.10;;;;;;;;;;6192565;28;20141;-83
2021/10/07 16:04:51;;;;;;;5.78;3.70;;;;;;;;;;6192193;28;20054;-83
2021/10/07 16:07:53;;;;;;;6.57;4.28;;;;;;;;;;6193488;28;20053;-82
2021/10/07 16:10:57;;;;;;;5.88;3.80;;;;;;;;;;6193816;28;20102;-82
2021/10/07 16:13:59;;;;;;;5.97;3.63;;;;;;;;;;6170595;28;20098;-81
2021/10/07 16:17:00;;;;;;;3.72;3.33;;;;;;;;;;6188960;28;20609;-81
2021/10/07 16:20:04;;;;;;;7.05;4.10;;;;;;;;;;6190524;28;20050;-83
2021/10/07 16:23:06;;;;;;;3.97;3.58;;;;;;;;;;6190358;28;20153;-81
2021/10/07 16:26:10;;;;;;;4.53;3.17;;;;;;;;;;6191924;28;20043;-82
2021/10/07 16:29:11;;;;;;;10.43;5.45;;;;;;;;;;6194492;28;20050;-83
2021/10/07 16:32:13;;;;;;;7.03;4.07;;;;;;;;;;6173263;28;20038;-83
2021/10/07 16:35:14;;;;;;;5.47;3.35;;;;;;;;;;6190027;28;20042;-82
2021/10/07 16:38:16;;;;;;;6.88;3.88;;;;;;;;;;6193306;28;20050;-83
2021/10/07 16:41:18;;;;;;;14.90;9.10;;;;;;;;;;6192413;28;20049;-83
2021/10/07 16:44:20;;;;;;;8.30;4.72;;;;;;;;;;6190527;28;20034;-81
2021/10/07 16:47:26;;;;;;;8.20;5.82;;;;;;;;;;6191667;28;20415;-83
2021/10/07 16:50:28;;;;;;;7.43;5.22;;;;;;;;;;6190664;28;20051;-82
2021/10/07 16:53:34;;;;;;;8.50;5.68;;;;;;;;;;6193489;28;20052;-82
2021/10/07 16:56:35;;;;;;;32.15;17.30;;;;;;;;;;6191998;28;20046;-81
2021/10/07 16:59:37;;;;;;;9.85;6.00;;;;;;;;;;6193467;28;20133;-83
2021/10/07 17:02:40;;;;;;;10.85;5.88;;;;;;;;;;6190234;28;20506;-82
2021/10/07 17:05:41;;;;;;;17.27;9.27;;;;;;;;;;6184733;28;20050;-82
2021/10/07 17:08:43;;;;;;;10.27;7.22;;;;;;;;;;6193895;28;20682;-82
2021/10/07 17:11:46;;;;;;;9.90;7.32;;;;;;;;;;6189069;28;20046;-81
2021/10/07 17:14:51;;;;;;;5.35;4.25;;;;;;;;;;6189754;28;20096;-82
2021/10/07 17:17:53;;;;;;;5.57;4.20;;;;;;;;;;6190270;28;20125;-81
2021/10/07 17:20:55;;;;;;;6.32;4.35;;;;;;;;;;6221735;28;20504;-82
2021/10/07 17:23:57;;;;;;;6.18;4.75;;;;;;;;;;6189275;28;20052;-81
2021/10/07 17:26:58;;;;;;;10.23;6.80;;;;;;;;;;6204239;28;20060;-83
2021/10/07 17:30:00;;;;;;;5.65;4.15;;;;;;;;;;6180069;28;20053;-83
2021/10/07 17:33:02;;;;;;;6.20;4.07;;;;;;;;;;6175685;28;20415;-82
2021/10/07 17:36:04;;;;;;;7.78;5.03;;;;;;;;;;6189629;28;20042;-81
2021/10/07 17:39:07;;;;;;;7.00;4.07;;;;;;;;;;6187541;28;20416;-82
2021/10/07 17:42:08;;;;;;;6.93;4.18;;;;;;;;;;6222146;28;20045;-83
2021/10/07 17:45:10;;;;;;;21.13;8.98;;;;;;;;;;6191112;28;20050;-83
2021/10/07 17:48:12;;;;;;;27.10;11.15;;;;;;;;;;6189229;28;20415;-83
2021/10/07 17:51:20;;;;;;;16.35;7.68;;;;;;;;;;6189625;28;20044;-83
2021/10/07 17:54:22;;;;;;;13.85;7.25;;;;;;;;;;6188377;28;20048;-83
2021/10/07 17:57:23;;;;;;;13.45;6.70;;;;;;;;;;6189491;28;20095;-83
2021/10/07 18:00:25;;;;;;;12.30;7.25;;;;;;;;;;6203219;28;20073;-83
2021/10/07 18:03:27;;;;;;;20.90;11.75;;;;;;;;;;6189764;28;20624;-82
2021/10/07 18:06:31;;;;;;;53.83;30.38;;;;;;;;;;6189214;28;20049;-83
2021/10/07 18:09:34;;;;;;;121.00;61.10;;;;;;;;;;6189927;28;20442;-81
2021/10/07 18:12:38;;;;;;;55.47;31.23;;;;;;;;;;6181800;28;20463;-83
2021/10/07 18:15:39;;;;;;;19.45;11.30;;;;;;;;;;6180840;28;20082;-83
2021/10/07 18:18:41;;;;;;;14.73;7.72;;;;;;;;;;6188861;28;20407;-83
2021/10/07 18:21:45;;;;;;;19.05;9.68;;;;;;;;;;6190966;28;20052;-83